Logo AVAMET
Benvolgut visitant, si us plau, ingressa Recuperar contrasenya

Xàbia Montgó/Toscamar

Dades diàries. Acumulats / Últims 30 dies disponibles

Data Temperatura (°C) Humitat rel. (%) Pressió rel. (hPa) Vent (km/h) Precipitació
Mínima Mitjana Màxima Amplitud
tèrmica
Mínima Mitjana Màxima Mínima Mitjana Màxima Predom. Mitjana Ràfega
màxima
Total
(mm)
Índex-n
Mínima Mitjana Màxima Mínima Mitjana Màxima n
0 a 1
P0 max
mm 5'
Dades mensuals acumulades fins l'últim dia disponible
08/2019 21,2 23,1 25,9 27,1 27,1 31,5 36,8 15,6 22 68 93 1.008 1.014 1.019   6,1 51,5 4,6
Dades anuals acumulades fins l'últim dia disponible
2019 4,1 14,4 27,2 18,2 11,3 22,4 38,2 34,1 17 64 97 994 1.017 1.036   5,8 90,1 436,6
Últims 30 dies disponibles
19-08-2019 23,0     26,7     30,8 7,8 34 77 91 1.011 1.013 1.015 E 8,7 49,9 0,0
18-08-2019 22,3     27,4     32,6 10,3 34 71 93 1.010 1.012 1.014 E 4,0 24,1 0,0
17-08-2019 21,2     26,7     31,3 10,1 43 69 87 1.011 1.014 1.016 E 4,8 30,6 0,0
16-08-2019 21,3     26,2     29,9 8,6 49 63 79 1.015 1.017 1.018 E 4,7 35,4 0,0
15-08-2019 21,7     26,3     31,1 9,4 40 68 89 1.016 1.017 1.018 E 4,5 27,4 0,0
14-08-2019 21,2     25,6     29,9 8,7 49 70 83 1.016 1.018 1.019 E 3,5 27,4 0,0
13-08-2019 21,9     25,1     27,5 5,6 50 69 86 1.017 1.018 1.019 E 6,3 35,4 4,6
12-08-2019 24,5     25,4     27,1 2,6 64 79 88 1.010 1.013 1.016 E 11,4 51,5 0,0
11-08-2019 25,7     27,9     32,5 6,8 59 76 89 1.010 1.012 1.014 E 6,6 35,4 0,0
10-08-2019 25,9     30,7     34,8 8,9 30 50 88 1.012 1.014 1.016 E 7,7 46,7 0,0
09-08-2019 23,1     30,3     36,8 13,7 22 47 76 1.010 1.012 1.013 E 2,9 24,1 0,0
08-08-2019 25,1     30,1     34,5 9,4 27 52 84 1.010 1.011 1.013 E 7,6 40,2 0,0
07-08-2019 23,4     28,1     34,1 10,7 24 71 92 1.008 1.010 1.012 E 2,7 27,4 0,0
06-08-2019 23,8     27,7     32,6 8,8 58 76 90 1.008 1.011 1.013 E 4,7 25,7 0,0
05-08-2019 23,9     26,9     31,6 7,7 58 75 86 1.011 1.013 1.015 E 6,3 33,8 0,0
04-08-2019 22,3     26,7     32,4 10,1 39 61 81 1.012 1.013 1.015 E 5,3 24,1 0,0
03-08-2019 23,1     26,2     30,3 7,2 39 68 86 1.012 1.014 1.015 E 6,8 30,6 0,0
02-08-2019 22,2     25,8     31,3 9,1 41 71 84 1.012 1.014 1.015 E 8,0 45,1 0,0
01-08-2019 23,3     24,7     27,2 3,9 64 77 86 1.010 1.012 1.015 E 9,3 43,5 0,0
31-07-2019 24,0     25,2     28,8 4,8 55 75 85 1.013 1.015 1.017 E 6,8 40,2 0,0
30-07-2019 22,1     25,3     29,3 7,2 55 75 87 1.010 1.012 1.015 E 6,6 40,2 0,0
29-07-2019 20,8     26,3     30,8 10,0 44 64 84 1.009 1.010 1.011 E 4,8 32,2 0,0
28-07-2019 23,1     25,8     28,6 5,5 42 60 78 1.007 1.009 1.010 E 6,0 37,0 0,0
27-07-2019 22,4     28,6     33,9 11,5 20 48 84 1.002 1.005 1.008 E 8,4 40,2 0,0
26-07-2019 22,3     26,7     30,5 8,2 27 69 86 1.007 1.010 1.013 E 3,7 32,2 0,0
25-07-2019 22,8     28,5     33,1 10,3 31 43 70 1.012 1.013 1.015 E 4,5 25,7 0,0
24-07-2019 23,4     28,5     34,2 10,8 25 43 68 1.014 1.015 1.016 E 3,4 24,1 0,0
23-07-2019 21,8     28,1     33,6 11,8 23 56 84 1.015 1.017 1.019 ESE 4,5 24,1 0,0
22-07-2019 24,2     27,5     32,6 8,4 33 68 90 1.019 1.020 1.021 NNW 6,8 32,2 0,0
21-07-2019 24,3     26,5     29,2 4,9 65 78 90 1.016 1.019 1.021 NNW 8,4 37,0 0,0
Últims 13 mesos disponibles
07/2019 20,5 22,6 27,2 26,7 28,6 31,3 38,2 17,7 40 63 78 1.005 1.013 1.020 E 5,4 48,3 2,4
06/2019 13,8 18,1 22,7 22,4 20,4 26,6 34,9 21,1 38 63 81 1.008 1.015 1.022 E 7,0 57,9 1,0
05/2019 10,9 14,6 20,4 18,4 18,3 22,7 28,6 17,7 39 66 80 1.005 1.015 1.024 E 5,1 56,3 10,4
04/2019 8,6 11,9 13,9 15,1 13,4 18,9 26,9 18,3 35 68 94 1.000 1.013 1.025 E 6,4 78,9 358,6
03/2019 7,3 10,6 15,9 14,6 13,5 18,8 26,7 19,4 33 60 88 1.010 1.023 1.030 E 5,1 57,9 52,6
02/2019 6,1 8,8 12,1 12,6 11,5 16,9 22,8 16,7 35 63 82 996 1.025 1.034 E 5,4 90,1 0,2
01/2019 4,1 8,4 11,5 11,9 11,3 15,7 20,7 16,6 39 48 55 1.003 1.012 1.017 ENE 5,9 70,8 6,8
12/2018 7,6 10,2 14,2 13,9 12,2 18,0 22,9 15,3 40 68 88 1.009 1.025 1.031 ENE 3,1 75,6 27,4
11/2018 9,6 12,5 16,7 15,2 14,9 18,3 23,8 14,2 48 70 90 1.000 1.014 1.022 ENE 5,1 74,0 113,8
10/2018 8,3 15,7 19,2 18,9 13,6 22,5 27,4 19,1 43 71 88 1.000 1.014 1.025 5,1 56,3 121,8
09/2018 16,6 21,0 23,3 24,0 23,8 27,6 30,8 14,2 64 79 89 1.012 1.018 1.027 4,6 45,1 46,8
08/2018 19,4 23,2 26,5 26,9 24,1 30,9 36,4 17,0 43 70 87 1.012 1.016 1.020 5,0 56,3 119,4
07/2018 20,0 22,3 24,4 26,4 26,5 30,7 34,2 14,2 5,7 57,9 5,6
Tots els anys disponibles
2018 2,9 15,0 26,5 18,5 7,0 22,3 36,4 33,5 40 72 90 1.000 1.018 1.031 ENE 5,5 77,2 695,2
2017 -0,2 14,8 26,4 18,4 7,8 22,3 35,7 35,9 5,0 95,0 844,2
2016 4,2 15,1 27,9 18,5 11,8 22,3 39,2 35,0 5,5 74,0 563,0
2015 4,9 16,5 26,0 20,1 11,8 24,1 40,6 35,7 4,9 82,1 513,4
2014
Temperatura (°C)
Humitat relativa (%)
Velocitat del vent i ràfega màxima (km/h)
Direcció del vent (°)
Pressió (hPa)
Precipitació (mm)
Nota sobre les dades: s'avisa a l'usuari de la provisionalitat i no oficialitat d'aquestes dades
Logo AVAMET blanc
Web allotjada a Sollutia
Llicència de Creative CommonsLa web d'AVAMET i els seus continguts estan subjectes a una llicència de
Reconeixement - No Comercial - Compartir igual
Properes estacions: Altea - Club Nàutic d'Altea (Soci), Ares del Maestrat (Ajuntament Soci),      - - - - -      Últimes estacions: Catadau - Urb. Lloma Molina (Inforatge), Ontinyent - El Pilar (Soci) - - -